Flight Track Log - Related Links

Times and Time Zones

All times are in EDT time to prevent confusion due to time zone crossing. See the SWA268 flight status page for this flight to view local times or setup timezone preferences in your user account.

Time Position Orientation Groundspeed Altitude Reporting Facility
EDT Latitude Longitude Course Direction KTS MPH feet Rate Location/Type
Wed 12:15:03 PM 33.6500 -117.8833 199° South 150 173 1,300  Level Southern California TRACON
Wed 12:16:12 PM 33.6086 -117.9006 199° South 163 188 2,600 1,557 Climbing Los Angeles Center
Wed 12:17:14 PM 33.5572 -117.9122 191° South 178 205 4,700 2,516 Climbing Los Angeles Center
Wed 12:18:16 PM 33.5100 -117.9531 216° Southwest 234 269 7,800 2,419 Climbing Los Angeles Center
Wed 12:19:18 PM 33.4944 -118.0442 258° West 271 312 9,700 2,952 Climbing Los Angeles Center
Wed 12:20:20 PM 33.5639 -118.1025 325° Northwest 300 345 13,900 3,048 Climbing Los Angeles Center
Wed 12:21:22 PM 33.6494 -118.0844 10° North 312 359 16,000 968 Climbing Los Angeles Center
Wed 12:22:24 PM 33.7358 -118.0650 11° North 319 367 15,900 145 Descending Los Angeles Center
Wed 12:23:26 PM 33.8172 -118.0242 23° Northeast 325 374 16,300 1,984 Climbing Los Angeles Center
Wed 12:24:28 PM 33.9128 -117.9372 37° Northeast 360 414 20,000 2,735 Climbing Los Angeles Center
Wed 12:25:42 PM 33.9947 -117.8625 37° Northeast 369 425 22,500 2,409 Climbing Los Angeles Center
Wed 12:26:45 PM 34.0964 -117.7661 38° Northeast 387 445 25,500 2,976 Climbing Los Angeles Center
Wed 12:27:47 PM 34.1675 -117.6669 49° Northeast 389 448 28,700 1,544 Climbing Los Angeles Center
Wed 12:29:01 PM 34.2394 -117.5703 48° Northeast 386 444 29,000 132 Climbing Los Angeles Center
Wed 12:30:03 PM 34.3250 -117.4531 49° Northeast 388 447 29,000  Level Los Angeles Center
Wed 12:31:05 PM 34.3989 -117.3525 48° Northeast 384 442 29,000  Level Los Angeles Center
Wed 12:32:07 PM 34.4689 -117.2569 48° Northeast 383 441 29,000  Level Los Angeles Center
Wed 12:33:09 PM 34.5517 -117.1431 49° Northeast 377 434 29,000  Level Los Angeles Center
Wed 12:34:11 PM 34.6206 -117.0489 48° Northeast 377 434 29,000  Level Los Angeles Center
Wed 12:35:13 PM 34.6900 -116.9519 49° Northeast 382 440 29,000  Level Los Angeles Center
Wed 12:36:15 PM 34.7586 -116.8569 49° Northeast 377 434 29,000  Level Los Angeles Center
Wed 12:37:17 PM 34.8283 -116.7622 48° Northeast 377 434 29,000  Level Los Angeles Center
Wed 12:38:19 PM 34.9108 -116.6464 49° Northeast 378 435 29,000 -726 Level Los Angeles Center
Wed 12:39:21 PM 34.9775 -116.5547 48° Northeast 369 425 27,500 -1,680 Descending Los Angeles Center
Wed 12:40:24 PM 35.0447 -116.4744 44° Northeast 347 399 25,500 -1,680 Descending Los Angeles Center
Wed 12:41:26 PM 35.1078 -116.3925 47° Northeast 335 386 24,000 -720 Descending Los Angeles Center
Wed 12:42:29 PM 35.1742 -116.3100 45° Northeast 338 389 24,000  Level Los Angeles Center
Wed 12:43:30 PM 35.2550 -116.2117 45° Northeast 342 394 24,000 -439 Level Los Angeles Center
Wed 12:44:32 PM 35.3069 -116.1436 47° Northeast 344 396 23,100 -1,500 Descending Los Angeles Center
Wed 12:45:34 PM 35.3833 -116.0464 46° Northeast 331 381 20,900 -1,932 Descending Los Angeles Center
Wed 12:46:30 PM 35.4406 -115.9769 45° Northeast 327 376 19,300 -1,814 Descending Los Angeles Center
Wed 12:47:00 PM 35.4756 -115.9289 48° Northeast 323 372 18,300 -1,500 Descending Los Angeles Center
Wed 12:47:38 PM 35.5072 -115.8928 43° Northeast 315 362 17,600 -1,475 Descending Los Angeles Center
Wed 12:48:01 PM 35.5353 -115.8547 48° Northeast 307 353 16,800 -1,619 Descending Los Angeles Center
Wed 12:48:41 PM 35.5675 -115.8153 45° Northeast 302 348 15,900 -1,672 Descending Los Angeles Center
Wed 12:49:02 PM 35.5914 -115.7839 47° Northeast 293 337 15,100 -1,645 Descending Los Angeles Center
Wed 12:49:43 PM 35.6225 -115.7456 45° Northeast 289 333 14,200 -1,672 Descending Los Angeles Center
Wed 12:50:03 PM 35.6494 -115.7125 45° Northeast 276 318 13,400 -1,161 Descending Los Angeles Center
Wed 12:50:45 PM 35.6839 -115.6639 49° Northeast 275 316 13,000 -590 Descending Los Angeles Center
Wed 12:51:04 PM 35.6861 -115.6319 85° East 281 323 12,800 -581 Descending Los Angeles Center
Wed 12:51:47 PM 35.6872 -115.5689 89° East 280 322 12,400 -590 Descending Los Angeles Center
Wed 12:52:05 PM 35.6836 -115.5403 99° East 267 307 12,200 -774 Descending Los Angeles Center
Wed 12:52:49 PM 35.6831 -115.4828 91° East 261 300 11,600 -984 Descending Los Angeles Center
Wed 12:53:06 PM 35.6803 -115.4542 97° East 248 285 11,200 -1,161 Descending Los Angeles Center
Wed 12:53:51 PM 35.6803 -115.4025 90° East 245 282 10,400 -1,475 Descending Los Angeles Center
Wed 12:54:07 PM 35.6983 -115.3875 34° Northeast 212 244 9,700 -1,452 Descending Los Angeles Center
Wed 12:54:53 PM 35.7297 -115.3656 30° Northeast 227 261 8,900 -1,279 Descending Los Angeles Center
Wed 12:55:08 PM 35.7511 -115.3517 28° Northeast 215 247 8,400 -1,048 Descending Los Angeles Center
Wed 12:55:56 PM 35.7961 -115.3294 22° Northeast 219 252 7,800 -992 Descending Los Angeles Center
Wed 12:57:09 PM 35.8611 -115.2919 25° Northeast 210 242 6,400 -871 Descending Los Angeles Center
Wed 12:58:00 PM 35.9022 -115.2678 25° Northeast 213 245 6,000 -584 Descending Los Angeles Center
Wed 12:59:02 PM 35.9550 -115.2381 25° Northeast 211 243 5,300 -864 Descending Los Angeles Center
Wed 01:00:12 PM 36.0139 -115.1994 28° Northeast 177 204 4,100 -1,018 Descending Los Angeles Center
Wed 01:00:54 PM 36.0331 -115.1867 28° Northeast 128 147 3,400 -1,377 Descending Los Angeles Center
Wed 01:01:13 PM 36.0508 -115.1817 13° North 141 162 2,700 -774 Descending Los Angeles Center
Wed 01:01:56 PM 36.0736 -115.1711 21° North 136 157 2,600 -343 Descending Los Angeles Center
Wed 01:02:58 PM 36.0881 -115.1561 40° Northeast 98 113 2,100 -484 Descending Los Angeles Center
Wed 01:04:00 PM 36.0801 -115.1523 95° East  Level Estimated

Login

Don't have an account? Register now (free) for customized features, flight alerts, and more!